Time;durP1;ratioP1;P1;durP2;ratioP2;P2;SDS_P1;SDS_P2;PMS_P1;PMS_P2;Temp;Humidity;BMP_temperature;BMP_pressure;BME280_temperature;BME280_humidity;BME280_pressure;Samples;Min_cycle;Max_cycle;Signal;HPM_P1;HPM_P2
2022/02/11 00:00:53;;;;;;;16.70;3.00;;;;;;;2.89;74.30;99975.47;5064113;28;20373;-70
2022/02/11 00:08:27;;;;;;;15.48;2.13;;;;;;;2.74;74.74;99991.47;5063960;28;20028;-69
2022/02/11 00:10:52;;;;;;;11.40;2.80;;;;;;;2.72;74.99;99985.44;5063413;28;20021;-70
2022/02/11 00:13:17;;;;;;;16.05;2.88;;;;;;;2.72;74.74;99985.44;5045615;28;20017;-70
2022/02/11 00:15:43;;;;;;;14.50;2.88;;;;;;;2.66;75.40;99993.03;5045769;28;20044;-70
2022/02/11 00:18:14;;;;;;;14.23;2.97;;;;;;;2.64;75.25;99987.88;5063758;28;20037;-69
2022/02/11 00:20:44;;;;;;;9.00;2.40;;;;;;;2.57;75.59;99996.31;5063933;28;20039;-70
2022/02/11 00:23:09;;;;;;;9.18;2.00;;;;;;;2.58;75.72;100004.03;5063507;28;20063;-69
2022/02/11 00:25:43;;;;;;;15.68;2.40;;;;;;;2.56;76.02;100003.13;5072359;28;20016;-70
2022/02/11 00:33:40;;;;;;;10.82;2.05;;;;;;;2.45;76.38;100010.63;4982126;28;20057;-70
2022/02/11 00:36:09;;;;;;;14.40;2.38;;;;;;;2.45;76.32;100012.31;4981822;28;20035;-70
2022/02/11 00:39:01;;;;;;;13.93;2.45;;;;;;;2.41;76.44;100011.38;4982018;28;20023;-69
2022/02/11 01:06:04;;;;;;;7.47;1.95;;;;;;;2.10;77.53;100044.09;4962502;29;20031;-70
2022/02/11 01:08:30;;;;;;;8.32;1.90;;;;;;;2.12;77.72;100050.13;5011350;28;20066;-71
2022/02/11 01:10:58;;;;;;;9.88;1.92;;;;;;;2.13;77.31;100041.59;5020668;28;20038;-70
2022/02/11 01:13:23;;;;;;;15.50;2.30;;;;;;;2.13;77.68;100044.16;5021119;28;20065;-70
2022/02/11 01:15:55;;;;;;;15.93;2.30;;;;;;;2.15;77.62;100045.06;5020346;28;20030;-71
2022/02/11 01:18:21;;;;;;;10.50;1.73;;;;;;;2.18;77.44;100042.56;5020829;28;20022;-70
2022/02/11 01:20:51;;;;;;;12.18;2.75;;;;;;;2.16;77.27;100033.97;5004264;28;20029;-70
2022/02/11 01:31:22;;;;;;;9.77;1.80;;;;;;;2.36;77.69;100046.34;5063136;28;20032;-70
2022/02/11 01:59:47;;;;;;;6.15;1.58;;;;;;;2.68;77.45;100043.50;5066622;28;20021;-69
2022/02/11 02:36:50;;;;;;;10.55;1.95;;;;;;;2.68;76.80;100056.34;4964589;29;20039;-69
2022/02/11 02:58:16;;;;;;;7.88;2.03;;;;;;;2.61;76.88;100051.91;5022599;28;20205;-69
2022/02/11 03:01:15;;;;;;;9.88;1.55;;;;;;;2.55;76.87;100046.69;5023028;28;20062;-70
2022/02/11 03:52:41;;;;;;;13.32;2.20;;;;;;;1.86;76.91;100088.84;5064467;28;20033;-70
2022/02/11 03:55:43;;;;;;;6.63;1.88;;;;;;;1.83;76.76;100091.34;5064135;28;20084;-69
2022/02/11 04:59:57;;;;;;;10.15;1.80;;;;;;;1.17;75.78;100160.53;4981968;28;20131;-69
2022/02/11 05:02:26;;;;;;;6.35;1.65;;;;;;;1.13;75.74;100164.72;4981843;28;20047;-69
2022/02/11 05:04:54;;;;;;;10.98;1.80;;;;;;;1.11;75.71;100171.47;4965377;28;20137;-69
2022/02/11 05:07:20;;;;;;;10.88;2.10;;;;;;;1.06;75.69;100173.91;4981695;28;20035;-69
2022/02/11 05:09:45;;;;;;;7.20;1.30;;;;;;;1.06;75.67;100183.28;4981494;28;20103;-69
2022/02/11 05:12:10;;;;;;;6.85;1.17;;;;;;;1.06;75.63;100188.38;4981550;28;20053;-69
2022/02/11 05:14:36;;;;;;;9.95;2.45;;;;;;;1.05;75.49;100186.66;4981667;28;20078;-69
2022/02/11 05:17:01;;;;;;;6.30;1.42;;;;;;;1.06;75.55;100196.94;4981308;28;20094;-69
2022/02/11 05:19:27;;;;;;;6.20;1.85;;;;;;;1.01;75.60;100195.94;4981527;28;20035;-69
2022/02/11 05:21:52;;;;;;;9.18;1.92;;;;;;;1.02;75.56;100197.69;4965482;28;20027;-69
2022/02/11 05:24:17;;;;;;;6.05;2.80;;;;;;;1.03;75.56;100208.75;4981204;28;20085;-70
2022/02/11 05:26:43;;;;;;;5.95;1.63;;;;;;;1.04;75.42;100208.78;4983623;28;20046;-69
2022/02/11 05:29:08;;;;;;;18.02;2.53;;;;;;;1.04;75.46;100200.28;4994296;28;20037;-69
2022/02/11 05:31:33;;;;;;;7.97;1.38;;;;;;;1.07;75.36;100208.03;5066961;28;20082;-69
2022/02/11 05:33:59;;;;;;;9.05;2.13;;;;;;;1.12;75.17;100214.13;5067014;28;20021;-69
2022/02/11 05:36:24;;;;;;;3.60;1.33;;;;;;;1.15;75.17;100218.47;5066634;28;20017;-66
2022/02/11 05:38:49;;;;;;;7.35;1.35;;;;;;;1.18;75.07;100221.94;5066730;28;20480;-67
2022/02/11 05:41:15;;;;;;;4.97;1.63;;;;;;;1.21;75.22;100223.75;5066492;28;20028;-67
2022/02/11 05:43:40;;;;;;;11.98;2.22;;;;;;;1.24;74.81;100234.06;5066787;28;20074;-66
2022/02/11 05:46:08;;;;;;;6.57;1.50;;;;;;;1.22;74.66;100221.22;5066324;28;20390;-66
2022/02/11 05:48:35;;;;;;;7.20;1.90;;;;;;;1.27;74.41;100223.91;5066577;28;20539;-65
2022/02/11 05:51:01;;;;;;;4.65;1.58;;;;;;;1.17;74.49;100206.56;5066577;28;20100;-65
2022/02/11 05:53:26;;;;;;;8.85;1.90;;;;;;;1.36;74.49;100228.38;5066319;28;20025;-64
2022/02/11 05:55:51;;;;;;;6.93;1.27;;;;;;;1.42;74.36;100225.13;5066502;28;20014;-65
2022/02/11 05:58:17;;;;;;;6.30;1.73;;;;;;;1.41;74.18;100221.72;5066256;28;20025;-66
2022/02/11 06:00:42;;;;;;;5.60;1.45;;;;;;;1.48;74.02;100228.72;5066287;28;20024;-66
2022/02/11 06:03:07;;;;;;;3.90;1.70;;;;;;;1.53;73.85;100235.66;5066171;28;20492;-65
2022/02/11 06:05:33;;;;;;;15.60;2.97;;;;;;;1.54;73.72;100237.38;5065924;28;20060;-66
2022/02/11 06:07:58;;;;;;;6.38;1.75;;;;;;;1.58;73.53;100244.31;5066139;28;20065;-65
2022/02/11 06:10:23;;;;;;;4.95;1.40;;;;;;;1.58;73.38;100249.44;5066177;28;20056;-65
2022/02/11 06:12:49;;;;;;;5.03;1.27;;;;;;;1.45;73.19;100228.63;5065773;28;20116;-65
2022/02/11 06:15:14;;;;;;;5.32;1.30;;;;;;;1.42;72.89;100233.66;5066011;28;20032;-65
2022/02/11 06:17:40;;;;;;;6.25;1.38;;;;;;;1.44;72.85;100233.69;5066012;28;20028;-65
2022/02/11 06:20:09;;;;;;;6.30;1.65;;;;;;;1.55;72.50;100254.47;5066138;28;20029;-66
2022/02/11 06:22:34;;;;;;;5.82;1.33;;;;;;;1.55;72.36;100263.00;5065855;28;20029;-68
2022/02/11 06:24:59;;;;;;;4.65;1.15;;;;;;;1.53;72.32;100268.91;5065744;28;20547;-68
2022/02/11 06:27:25;;;;;;;7.03;2.47;;;;;;;1.52;72.24;100277.44;5065463;28;20048;-68
2022/02/11 06:29:51;;;;;;;11.13;1.63;;;;;;;1.54;71.95;100280.88;5065805;28;20031;-63
2022/02/11 06:32:16;;;;;;;11.30;1.60;;;;;;;1.50;71.71;100282.50;5065883;28;20056;-62
2022/02/11 06:34:41;;;;;;;6.82;1.38;;;;;;;1.47;71.67;100285.81;5065764;28;20040;-63
2022/02/11 06:37:07;;;;;;;3.88;1.30;;;;;;;1.50;71.67;100286.75;5046696;28;20013;-63
2022/02/11 06:39:32;;;;;;;4.50;1.88;;;;;;;1.44;71.34;100300.22;5065670;28;20025;-64
2022/02/11 06:41:58;;;;;;;8.75;1.70;;;;;;;1.36;70.89;100288.09;5065224;28;20021;-63
2022/02/11 06:44:23;;;;;;;10.18;2.00;;;;;;;1.44;71.00;100303.66;5065599;28;20029;-63
2022/02/11 06:46:49;;;;;;;10.68;1.65;;;;;;;1.43;70.98;100304.50;5065315;28;20029;-64
2022/02/11 06:49:15;;;;;;;6.60;1.60;;;;;;;1.44;70.89;100316.44;5065650;28;20455;-62
2022/02/11 06:51:40;;;;;;;7.35;1.63;;;;;;;1.44;70.53;100321.56;5065608;28;20045;-62
2022/02/11 06:54:06;;;;;;;9.70;2.00;;;;;;;1.43;70.30;100319.84;5065370;28;20331;-64
2022/02/11 06:56:31;;;;;;;5.15;1.70;;;;;;;1.41;70.29;100326.59;5063647;28;20039;-64
2022/02/11 06:58:57;;;;;;;13.23;3.35;;;;;;;1.40;70.13;100327.44;5065507;28;20036;-65
2022/02/11 07:01:23;;;;;;;5.28;2.20;;;;;;;1.31;70.06;100317.78;5065213;28;20090;-66
2022/02/11 07:03:49;;;;;;;4.78;1.45;;;;;;;1.39;69.62;100335.06;5064725;28;20037;-67
2022/02/11 07:06:14;;;;;;;9.27;1.85;;;;;;;1.29;69.49;100339.91;5064606;28;20025;-66
2022/02/11 07:08:40;;;;;;;4.25;1.42;;;;;;;1.31;69.23;100351.03;5065161;28;20025;-67
2022/02/11 07:11:05;;;;;;;9.55;1.60;;;;;;;1.26;69.20;100339.84;5064839;28;20029;-68
2022/02/11 07:13:30;;;;;;;6.40;1.50;;;;;;;1.23;69.05;100345.72;5065121;28;20017;-65
2022/02/11 07:15:56;;;;;;;5.68;1.40;;;;;;;1.16;68.83;100345.50;5064882;28;20037;-67
2022/02/11 07:18:21;;;;;;;3.42;1.40;;;;;;;1.08;68.48;100350.38;5064769;28;20038;-66
2022/02/11 07:20:49;;;;;;;6.70;1.45;;;;;;;1.05;68.49;100356.28;5046352;28;20099;-66
2022/02/11 07:23:14;;;;;;;8.48;1.67;;;;;;;0.97;68.41;100352.63;5064163;28;20060;-67
2022/02/11 07:25:40;;;;;;;5.30;1.50;;;;;;;0.93;68.32;100361.88;5064147;28;20029;-67
2022/02/11 07:28:05;;;;;;;6.28;1.58;;;;;;;0.89;68.19;100364.31;5063922;28;20025;-66
2022/02/11 07:30:31;;;;;;;6.40;1.33;;;;;;;0.85;68.20;100369.31;5063960;28;20033;-66
2022/02/11 07:32:57;;;;;;;3.78;1.40;;;;;;;0.79;67.88;100375.94;5064419;28;20092;-66
2022/02/11 07:35:23;;;;;;;6.60;1.67;;;;;;;0.77;67.90;100380.13;5064150;28;20025;-65
2022/02/11 07:37:49;;;;;;;9.35;1.33;;;;;;;0.69;67.53;100378.19;5063715;28;20059;-66
2022/02/11 07:40:15;;;;;;;7.38;2.05;;;;;;;0.72;67.74;100391.06;5063818;28;20084;-66
2022/02/11 07:42:42;;;;;;;8.00;1.42;;;;;;;0.64;67.39;100392.50;5063433;28;20025;-66
2022/02/11 07:45:09;;;;;;;6.25;1.75;;;;;;;0.65;67.07;100401.94;5045716;28;20397;-66
2022/02/11 07:47:35;;;;;;;7.63;1.50;;;;;;;0.66;67.34;100408.75;5063523;28;20032;-66
2022/02/11 07:50:00;;;;;;;5.05;1.35;;;;;;;0.60;67.56;100408.56;5062581;28;20099;-67
2022/02/11 07:52:25;;;;;;;4.45;1.50;;;;;;;0.64;67.56;100417.22;5063505;28;20032;-66
2022/02/11 07:54:51;;;;;;;8.52;1.88;;;;;;;0.55;67.59;100413.53;5063510;28;20036;-66
2022/02/11 07:57:17;;;;;;;2.97;1.33;;;;;;;0.64;67.71;100430.84;5063325;28;20028;-66
2022/02/11 07:59:43;;;;;;;5.97;2.08;;;;;;;0.98;68.68;100421.69;5045553;28;20058;-66
2022/02/11 08:02:08;;;;;;;5.53;1.70;;;;;;;1.57;69.03;100412.34;5063375;28;20055;-66
2022/02/11 08:04:34;;;;;;;8.38;1.73;;;;;;;2.64;68.47;100441.59;5063640;28;20043;-65
2022/02/11 08:06:59;;;;;;;15.95;2.20;;;;;;;3.60;67.28;100442.03;5063712;28;20071;-66
2022/02/11 08:09:24;;;;;;;7.65;1.65;;;;;;;4.27;65.85;100429.59;5063360;28;20023;-67
2022/02/11 08:11:50;;;;;;;11.85;1.50;;;;;;;5.18;64.59;100443.06;5044820;28;20024;-66
2022/02/11 08:14:15;;;;;;;12.70;2.20;;;;;;;6.00;63.00;100462.09;5063567;28;20069;-67
2022/02/11 08:16:40;;;;;;;2.95;1.20;;;;;;;6.66;61.22;100471.41;5045130;28;20027;-67
2022/02/11 08:19:06;;;;;;;5.72;1.50;;;;;;;7.25;60.43;100469.22;5063147;28;20456;-67
2022/02/11 08:21:35;;;;;;;3.00;1.40;;;;;;;7.83;58.24;100484.19;5062957;28;20469;-66
2022/02/11 08:24:01;;;;;;;5.25;1.52;;;;;;;8.25;56.38;100492.94;5062954;28;20068;-65
2022/02/11 08:26:29;;;;;;;6.63;1.63;;;;;;;8.48;54.89;100499.03;5062730;28;20029;-66
2022/02/11 08:28:56;;;;;;;4.43;1.45;;;;;;;8.90;54.34;100501.69;5063004;28;20098;-66
2022/02/11 08:31:22;;;;;;;6.03;2.13;;;;;;;9.13;53.17;100512.06;5062932;28;20021;-66
2022/02/11 08:33:49;;;;;;;3.58;1.23;;;;;;;9.21;49.87;100526.72;5062984;28;20039;-64
2022/02/11 08:36:15;;;;;;;2.85;1.20;;;;;;;8.75;49.89;100518.09;5062853;28;20025;-67
2022/02/11 08:38:41;;;;;;;4.95;1.50;;;;;;;8.87;50.22;100530.16;5063148;28;20025;-66
2022/02/11 08:41:07;;;;;;;11.95;1.67;;;;;;;9.07;50.18;100530.19;5062582;28;20060;-67
2022/02/11 08:43:32;;;;;;;2.50;1.42;;;;;;;9.45;49.33;100532.72;5062677;28;20124;-66
2022/02/11 08:45:58;;;;;;;5.25;1.65;;;;;;;9.76;47.74;100538.69;5062588;28;20021;-66
2022/02/11 08:48:23;;;;;;;7.07;1.52;;;;;;;9.83;47.50;100544.72;5062790;28;20028;-65
2022/02/11 08:50:48;;;;;;;6.88;1.88;;;;;;;10.17;45.54;100554.13;5062694;28;20029;-65
2022/02/11 08:53:15;;;;;;;3.80;1.60;;;;;;;10.11;45.27;100552.41;5062724;28;20033;-65
2022/02/11 08:55:41;;;;;;;3.10;1.38;;;;;;;10.33;44.94;100560.09;5044578;28;20031;-67
2022/02/11 08:58:07;;;;;;;5.20;1.30;;;;;;;10.85;45.34;100555.50;5062646;28;20032;-65
2022/02/11 09:00:33;;;;;;;4.85;1.33;;;;;;;11.18;43.56;100563.06;5062324;28;20067;-67
2022/02/11 09:02:59;;;;;;;5.93;1.40;;;;;;;11.46;42.84;100568.00;5062627;28;20025;-66
2022/02/11 09:05:27;;;;;;;6.10;2.20;;;;;;;11.51;41.47;100574.03;5044450;28;20401;-66
2022/02/11 09:07:57;;;;;;;5.30;1.20;;;;;;;11.74;41.39;100566.84;5062291;28;20021;-66
2022/02/11 09:10:26;;;;;;;3.92;1.08;;;;;;;12.17;40.29;100581.16;5062507;28;20029;-65
2022/02/11 09:12:52;;;;;;;4.53;1.40;;;;;;;11.96;35.65;100577.03;5062099;28;20056;-65
2022/02/11 09:15:19;;;;;;;4.45;1.25;;;;;;;11.44;36.90;100576.69;5044459;28;20032;-66
2022/02/11 09:17:45;;;;;;;6.90;1.40;;;;;;;11.35;37.53;100596.69;5062280;28;20353;-66
2022/02/11 09:20:10;;;;;;;3.75;1.40;;;;;;;11.57;37.46;100593.88;5062295;28;20025;-66
2022/02/11 09:22:36;;;;;;;6.32;1.40;;;;;;;11.68;37.07;100596.38;5062302;28;20024;-65
2022/02/11 09:25:01;;;;;;;1.50;0.80;;;;;;;11.75;36.22;100602.38;5062544;28;20488;-64
2022/02/11 09:27:27;;;;;;;2.35;1.10;;;;;;;11.84;37.42;100599.69;5062185;28;20515;-66
2022/02/11 09:29:52;;;;;;;6.43;1.27;;;;;;;11.91;37.57;100597.88;5062132;28;20036;-65
2022/02/11 09:32:17;;;;;;;3.20;1.00;;;;;;;12.28;34.46;100614.84;5062408;28;20365;-65
2022/02/11 09:34:43;;;;;;;8.00;1.30;;;;;;;11.55;33.64;100618.19;5062262;28;20536;-65
2022/02/11 09:37:08;;;;;;;5.57;1.30;;;;;;;10.80;33.01;100635.16;5061770;28;20056;-66
2022/02/11 09:39:34;;;;;;;3.40;1.30;;;;;;;10.26;33.77;100631.06;5062420;28;20029;-66
2022/02/11 09:41:59;;;;;;;3.10;1.05;;;;;;;9.81;33.78;100639.81;5061821;28;20059;-64
2022/02/11 09:44:27;;;;;;;1.88;1.20;;;;;;;9.36;34.59;100645.03;5062356;28;20028;-65
2022/02/11 09:46:54;;;;;;;7.32;1.75;;;;;;;9.19;35.51;100648.47;5062069;28;20032;-65
2022/02/11 09:49:20;;;;;;;5.55;1.30;;;;;;;9.42;36.98;100661.41;5062305;28;20025;-65
2022/02/11 09:51:47;;;;;;;5.25;1.10;;;;;;;9.83;37.46;100656.25;5062356;28;20128;-65
2022/02/11 09:54:17;;;;;;;5.22;1.00;;;;;;;10.20;36.53;100668.28;5062125;28;20036;-65
2022/02/11 09:56:43;;;;;;;2.25;1.17;;;;;;;10.35;35.55;100663.91;5061831;28;20024;-65
2022/02/11 09:59:09;;;;;;;5.22;1.30;;;;;;;10.37;35.70;100662.16;5062262;28;20027;-65
2022/02/11 10:01:37;;;;;;;4.90;1.50;;;;;;;10.21;34.18;100687.31;5061926;28;20357;-64
2022/02/11 10:04:22;;;;;;;2.67;1.05;;;;;;;10.07;35.85;100679.53;5062096;28;20025;-65
2022/02/11 10:06:50;;;;;;;3.90;1.00;;;;;;;10.13;35.84;100688.16;5061596;28;20033;-65
2022/02/11 10:09:17;;;;;;;7.90;1.40;;;;;;;10.33;36.08;100692.47;5043885;28;20084;-65
2022/02/11 10:11:44;;;;;;;3.83;0.90;;;;;;;10.65;34.42;100691.50;5061971;28;20484;-66
2022/02/11 10:14:33;;;;;;;3.28;0.80;;;;;;;10.87;33.92;100699.22;5064642;28;20528;-65
2022/02/11 10:17:16;;;;;;;3.05;1.08;;;;;;;11.38;33.15;100707.56;5065405;28;20095;-65
2022/02/11 10:19:51;;;;;;;2.75;0.70;;;;;;;11.16;30.08;100702.50;5047283;28;20469;-66
2022/02/11 10:22:24;;;;;;;4.47;1.00;;;;;;;10.29;30.31;100706.28;5065475;28;20029;-66
2022/02/11 10:24:51;;;;;;;4.57;1.08;;;;;;;9.64;30.57;100717.59;5025446;28;20050;-65
2022/02/11 10:27:19;;;;;;;6.93;1.80;;;;;;;9.24;31.14;100721.88;5025045;28;20113;-66
2022/02/11 10:29:45;;;;;;;2.15;1.10;;;;;;;8.76;31.69;100726.88;5025528;28;20022;-66
2022/02/11 10:32:10;;;;;;;6.70;1.42;;;;;;;8.57;32.43;100737.16;5025488;28;20071;-67
2022/02/11 10:34:39;;;;;;;2.28;1.35;;;;;;;8.71;32.71;100739.81;5025522;28;20470;-67
2022/02/11 10:37:08;;;;;;;2.22;1.25;;;;;;;8.81;32.19;100727.78;5025146;28;20097;-66
2022/02/11 10:39:37;;;;;;;4.05;1.05;;;;;;;8.66;32.56;100752.75;5025276;28;20033;-67
2022/02/11 10:42:10;;;;;;;2.88;1.35;;;;;;;8.98;31.68;100748.56;5024789;28;20057;-66
2022/02/11 10:44:39;;;;;;;1.98;1.02;;;;;;;8.68;31.17;100765.69;5025267;28;20171;-66
2022/02/11 10:47:08;;;;;;;4.28;1.65;;;;;;;8.13;32.04;100760.13;5024902;28;20026;-66
2022/02/11 10:49:39;;;;;;;1.73;1.05;;;;;;;7.55;32.30;100771.72;5025269;28;20052;-65
2022/02/11 10:52:16;;;;;;;5.80;1.35;;;;;;;7.30;33.74;100774.03;5023790;28;20038;-66
2022/02/11 10:54:44;;;;;;;9.73;1.42;;;;;;;7.75;34.21;100778.78;5025089;28;20090;-66
2022/02/11 10:57:11;;;;;;;5.13;1.60;;;;;;;8.27;33.80;100780.06;5039966;28;20018;-66
2022/02/11 10:59:39;;;;;;;5.05;1.10;;;;;;;8.55;32.49;100785.44;5024849;28;20030;-65
2022/02/11 11:02:07;;;;;;;2.72;1.20;;;;;;;8.29;32.18;100792.16;5023423;28;20090;-65
2022/02/11 11:04:33;;;;;;;7.28;1.33;;;;;;;8.17;33.33;100792.94;5024675;28;20026;-66
2022/02/11 11:06:58;;;;;;;5.32;1.60;;;;;;;8.17;32.25;100792.06;5024455;28;20042;-66
2022/02/11 11:09:26;;;;;;;4.93;1.50;;;;;;;8.02;33.18;100798.00;5024755;28;20022;-65
2022/02/11 11:11:53;;;;;;;6.75;1.75;;;;;;;8.07;32.35;100798.88;5024517;28;20092;-66
2022/02/11 11:14:20;;;;;;;4.13;1.75;;;;;;;8.05;32.34;100813.53;5024717;28;20018;-65
2022/02/11 11:16:47;;;;;;;7.85;1.65;;;;;;;8.02;31.96;100788.50;5024701;28;20080;-66
2022/02/11 11:19:14;;;;;;;4.28;1.65;;;;;;;8.35;31.61;100793.06;5024898;28;20022;-67
2022/02/11 11:21:44;;;;;;;6.07;1.85;;;;;;;8.41;30.82;100803.44;5024893;28;20029;-65
2022/02/11 11:24:10;;;;;;;7.72;1.92;;;;;;;8.75;31.82;100815.78;5052955;28;20075;-64
2022/02/11 11:26:42;;;;;;;6.75;2.42;;;;;;;9.31;30.47;100808.25;5063751;28;20025;-65
2022/02/11 11:29:46;;;;;;;;;;;;;;;9.83;31.43;100819.59;5064865;28;20013;-65
2022/02/11 11:32:12;;;;;;;4.68;1.90;;;;;;;10.81;29.43;100804.84;5015658;28;19940;-66
2022/02/11 11:34:39;;;;;;;3.30;1.45;;;;;;;11.48;28.99;100820.16;5064077;28;20045;-65
2022/02/11 11:37:10;;;;;;;6.57;1.73;;;;;;;11.92;27.66;100825.94;5063852;28;20067;-66
2022/02/11 11:39:37;;;;;;;1.67;1.00;;;;;;;11.89;27.61;100832.03;5064068;28;20049;-66
2022/02/11 11:42:29;;;;;;;13.10;2.15;;;;;;;12.36;28.92;100831.69;5063848;28;20063;-65
2022/02/11 11:44:56;;;;;;;15.13;1.70;;;;;;;12.89;28.82;100830.31;5043007;28;20036;-65
2022/02/11 11:47:39;;;;;;;10.85;1.60;;;;;;;13.08;27.95;100833.53;5063822;28;20500;-66
2022/02/11 11:50:08;;;;;;;6.68;1.20;;;;;;;13.44;28.20;100838.31;5064002;28;20028;-65
2022/02/11 11:52:44;;;;;;;4.30;1.40;;;;;;;14.05;27.46;100834.88;5063581;28;20469;-66
2022/02/11 11:55:22;;;;;;;4.85;1.30;;;;;;;14.38;26.13;100836.94;5061974;28;20040;-66
2022/02/11 11:57:49;;;;;;;3.55;1.00;;;;;;;13.77;25.80;100834.44;5063168;28;20013;-66
2022/02/11 12:00:32;;;;;;;6.93;1.30;;;;;;;12.24;26.61;100839.59;5063822;28;20044;-65
2022/02/11 12:02:57;;;;;;;4.18;1.50;;;;;;;10.88;28.42;100846.38;5063602;28;20131;-66
2022/02/11 12:05:45;;;;;;;2.83;1.35;;;;;;;9.33;29.40;100842.78;5063353;28;20025;-65
2022/02/11 12:08:10;;;;;;;5.93;1.52;;;;;;;8.24;30.40;100847.31;5050239;28;20131;-65
2022/02/11 12:10:36;;;;;;;6.38;1.48;;;;;;;7.48;31.49;100870.66;5063370;28;20533;-66
2022/02/11 12:13:01;;;;;;;3.13;1.80;;;;;;;6.69;32.60;100861.88;5063103;28;20074;-64
2022/02/11 12:15:26;;;;;;;7.55;1.67;;;;;;;6.23;33.24;100877.47;5063202;28;20029;-65
2022/02/11 12:17:53;;;;;;;5.78;1.58;;;;;;;5.77;33.97;100887.78;5063493;28;20044;-65
2022/02/11 12:20:18;;;;;;;5.53;1.50;;;;;;;5.45;34.53;100884.63;5063075;28;20075;-66
2022/02/11 12:27:19;;;;;;;3.05;1.08;;;;;;;5.11;34.73;100889.06;5062995;28;20057;-65
2022/02/11 12:28:14;;;;;;;2.70;0.90;;;;;;;4.17;35.67;100909.97;5063036;28;20032;-65
2022/02/11 12:30:42;;;;;;;5.22;1.30;;;;;;;3.93;36.47;100912.78;5063131;28;20017;-66
2022/02/11 12:33:08;;;;;;;4.07;0.90;;;;;;;3.87;36.83;100926.31;5045019;28;20361;-65
2022/02/11 12:35:35;;;;;;;2.33;1.05;;;;;;;3.78;37.34;100928.63;5062360;28;20080;-66
2022/02/11 12:38:02;;;;;;;3.75;0.90;;;;;;;3.77;37.69;100939.75;5062924;28;20025;-66
2022/02/11 12:40:41;;;;;;;6.88;1.08;;;;;;;3.72;38.03;100930.19;5062778;28;20108;-65
2022/02/11 12:43:09;;;;;;;2.38;1.02;;;;;;;3.69;38.46;100937.81;5062975;28;20021;-70
2022/02/11 12:45:39;;;;;;;4.10;1.15;;;;;;;3.61;38.43;100934.16;5063248;28;20091;-69
2022/02/11 12:48:13;;;;;;;2.17;1.05;;;;;;;3.55;38.87;100949.38;5062856;28;20059;-69
2022/02/11 12:50:40;;;;;;;2.30;1.52;;;;;;;3.52;39.06;100951.84;5062829;28;20085;-70
2022/02/11 12:53:08;;;;;;;2.33;1.20;;;;;;;3.46;39.28;100952.56;5062922;28;20450;-70
2022/02/11 12:55:36;;;;;;;3.70;1.15;;;;;;;3.41;39.26;100962.69;5062911;28;20086;-70
2022/02/11 12:58:04;;;;;;;5.35;1.30;;;;;;;3.34;39.66;100968.44;5062696;28;20027;-70
2022/02/11 13:00:32;;;;;;;5.13;1.27;;;;;;;3.39;39.82;100972.03;5063188;28;20044;-65
2022/02/11 13:03:00;;;;;;;2.00;1.00;;;;;;;3.38;40.04;100978.00;5062953;28;20104;-66
2022/02/11 13:05:39;;;;;;;5.90;1.30;;;;;;;3.41;40.11;100975.53;5062850;28;20034;-67
2022/02/11 13:08:08;;;;;;;3.83;1.15;;;;;;;3.39;40.22;100981.41;5062303;28;20060;-66
2022/02/11 13:10:38;;;;;;;5.80;1.25;;;;;;;3.29;40.06;100973.44;5062507;28;20121;-65
2022/02/11 13:13:12;;;;;;;7.13;1.10;;;;;;;3.36;40.30;100982.22;5062513;28;20025;-67
2022/02/11 13:15:38;;;;;;;5.32;1.50;;;;;;;3.40;40.35;100986.63;5062866;28;20067;-66
2022/02/11 13:18:08;;;;;;;3.53;1.02;;;;;;;3.37;40.55;100995.94;5062479;28;20473;-66
2022/02/11 13:20:41;;;;;;;8.52;1.60;;;;;;;3.30;40.34;100989.72;5062634;28;20047;-66
2022/02/11 13:23:07;;;;;;;4.05;0.95;;;;;;;3.28;40.01;100997.38;5062246;28;20107;-65
2022/02/11 13:25:33;;;;;;;3.20;1.00;;;;;;;3.11;40.18;100981.47;5062513;28;20097;-66
2022/02/11 13:28:06;;;;;;;4.03;1.70;;;;;;;3.27;39.90;101005.03;5062376;28;20033;-66
2022/02/11 13:30:33;;;;;;;4.93;0.90;;;;;;;3.22;39.96;101003.19;5062748;28;20021;-66
2022/02/11 13:33:29;;;;;;;4.75;1.30;;;;;;;3.21;40.09;101008.28;5062729;28;20021;-67
2022/02/11 13:35:58;;;;;;;12.88;2.03;;;;;;;3.16;40.14;101008.13;5062514;28;20084;-66
2022/02/11 13:38:26;;;;;;;5.72;0.90;;;;;;;3.23;40.32;101022.00;5062489;28;20055;-67
2022/02/11 13:41:01;;;;;;;2.17;1.08;;;;;;;3.17;39.95;101027.84;5062320;28;20033;-66
2022/02/11 13:43:44;;;;;;;3.10;1.17;;;;;;;3.13;40.06;101028.53;5061712;28;20029;-67
2022/02/11 13:46:09;;;;;;;1.85;1.40;;;;;;;3.15;40.37;101033.72;5061939;28;20040;-67
2022/02/11 13:48:51;;;;;;;4.00;1.00;;;;;;;3.16;40.43;101033.81;5065901;28;20028;-66
2022/02/11 13:51:17;;;;;;;3.45;1.52;;;;;;;3.14;40.70;101032.00;5065819;28;20031;-67
2022/02/11 13:53:44;;;;;;;7.90;1.80;;;;;;;2.97;40.51;101011.81;5066195;28;20043;-66
2022/02/11 13:56:19;;;;;;;2.83;1.63;;;;;;;3.13;40.71;101038.81;5047961;28;20306;-66
2022/02/11 13:59:03;;;;;;;8.35;1.77;;;;;;;3.10;40.51;101046.41;5066031;28;20047;-66
2022/02/11 14:01:31;;;;;;;6.93;1.42;;;;;;;3.11;40.75;101063.56;5066045;28;20028;-66
2022/02/11 14:04:05;;;;;;;5.18;0.90;;;;;;;3.06;40.89;101057.41;5066152;28;20070;-66
2022/02/11 14:06:36;;;;;;;5.00;1.10;;;;;;;2.99;40.74;101064.00;5065763;28;20499;-67
2022/02/11 14:09:04;;;;;;;2.80;1.42;;;;;;;2.95;40.69;101063.06;5066066;28;20025;-67
2022/02/11 14:11:38;;;;;;;22.30;2.03;;;;;;;2.93;40.63;101069.81;5065889;28;20035;-65
2022/02/11 14:14:17;;;;;;;4.82;1.20;;;;;;;2.89;40.78;101078.22;5066135;28;20021;-66
2022/02/11 14:16:44;;;;;;;5.65;1.13;;;;;;;2.85;41.00;101081.50;5065922;28;20112;-66
2022/02/11 14:19:09;;;;;;;2.25;1.10;;;;;;;2.89;41.32;101085.91;5065588;28;20511;-66
2022/02/11 14:21:35;;;;;;;3.60;1.30;;;;;;;2.87;41.49;101086.69;5065691;28;20024;-66
2022/02/11 14:24:01;;;;;;;6.53;1.48;;;;;;;2.83;41.75;101094.28;5065584;28;20114;-66
2022/02/11 14:26:28;;;;;;;3.45;1.08;;;;;;;2.80;41.83;101085.59;5047358;28;20036;-67
2022/02/11 14:28:54;;;;;;;3.88;1.10;;;;;;;2.77;42.34;101101.75;5065538;28;20024;-65
2022/02/11 14:31:19;;;;;;;8.60;1.30;;;;;;;2.73;42.65;101097.34;5065426;28;20115;-67
2022/02/11 14:33:45;;;;;;;4.10;1.05;;;;;;;2.70;42.98;101108.34;5065552;28;20052;-67
2022/02/11 14:36:10;;;;;;;3.33;1.20;;;;;;;2.70;43.10;101112.63;5065270;28;20016;-66
2022/02/11 14:38:35;;;;;;;5.57;1.60;;;;;;;2.66;43.27;101113.31;5065495;28;20016;-67
2022/02/11 14:43:44;;;;;;;4.05;1.55;;;;;;;2.63;43.56;101123.47;5065085;28;20547;-66
2022/02/11 14:46:10;;;;;;;3.25;1.45;;;;;;;2.60;43.51;101130.22;5065409;28;20032;-68
2022/02/11 14:48:35;;;;;;;3.92;1.10;;;;;;;2.59;43.54;101132.72;5047593;28;20040;-67
2022/02/11 14:51:01;;;;;;;2.42;1.10;;;;;;;2.44;43.63;101125.38;5065265;28;20020;-67
2022/02/11 14:53:26;;;;;;;6.50;1.52;;;;;;;2.47;44.00;101146.88;5047304;28;20123;-66
2022/02/11 14:55:52;;;;;;;2.80;1.27;;;;;;;2.44;44.10;101149.31;5065216;28;20137;-66
2022/02/11 14:58:17;;;;;;;5.53;1.63;;;;;;;2.43;44.24;101155.25;5064243;28;20415;-66
2022/02/11 15:00:42;;;;;;;5.57;1.17;;;;;;;2.38;44.56;101159.31;5065143;28;20077;-67
2022/02/11 15:03:09;;;;;;;2.17;1.10;;;;;;;2.36;44.68;101160.97;5064680;28;20036;-67
2022/02/11 15:05:34;;;;;;;5.75;1.40;;;;;;;2.21;44.97;101151.88;5064743;28;20021;-67
2022/02/11 15:07:59;;;;;;;7.25;1.50;;;;;;;2.15;45.48;101153.31;5064442;28;20032;-66
2022/02/11 15:10:25;;;;;;;4.95;1.52;;;;;;;2.09;45.83;101148.84;5064768;28;20025;-67
2022/02/11 15:12:50;;;;;;;6.25;1.70;;;;;;;2.09;46.06;101153.97;5064809;28;20017;-66
2022/02/11 15:15:16;;;;;;;15.05;1.75;;;;;;;2.11;46.07;101157.44;5047121;28;20040;-67
2022/02/11 15:17:42;;;;;;;10.73;1.75;;;;;;;2.07;46.31;101156.47;5064786;28;20021;-68
2022/02/11 15:20:08;;;;;;;6.38;1.35;;;;;;;1.97;46.95;101165.50;5065371;28;20329;-66
2022/02/11 15:22:34;;;;;;;8.27;1.10;;;;;;;1.93;46.78;101157.63;5046307;28;20040;-68
2022/02/11 15:25:00;;;;;;;23.70;2.67;;;;;;;1.90;47.37;101165.19;5064527;28;20050;-67
2022/02/11 15:27:25;;;;;;;57.78;4.68;;;;;;;1.85;47.51;101175.25;5064130;28;20027;-67
2022/02/11 15:29:51;;;;;;;13.65;1.63;;;;;;;1.81;47.63;101171.69;5064676;28;20028;-68
2022/02/11 15:32:16;;;;;;;12.57;1.55;;;;;;;1.77;47.68;101174.06;5064880;28;20389;-67
2022/02/11 15:34:44;;;;;;;6.32;1.35;;;;;;;1.72;48.10;101186.69;5065022;28;20031;-67